Aeroporto :
LOGIN :

Iscrizione | Disclaimer

   EN    FR    IT 

 










Sommario :    VFR   VFR Marginale   IFR   IFR Intensivo   IFR Molto Intensivo
Visibilità : 
Base nubi : 
>= 8 km
>= 3000ft
5 / 8 km
1000 / 3000 ft
1500m / 5 km
500 / 1000 ft
800 / 1500m
200 / 500 ft
< 800m
< 200 ft
Simboli :   Temporali  Nebbia  Neve Forte  Precipitazioni Forti  Vento > 20 kt
SIGMETs :   Varie  Temporali  Ghiacco  Turbolenza  Onda orograficha  Ceneri Vulcaniche






- Altitudine del aeroporto : 913 ft


LFSX - Luxeuil

ULTIMO METAR :
  • 171230Z AUTO 30004KT 6000 -RA SCT006/// BKN014/// OVC048/// ///TCU 02/01 Q1005

METARs OBSOLETI :
  • 171200Z AUTO 30004KT 6000 -RA FEW006 BKN014 OVC047 02/01 Q1005
  • 171130Z AUTO 28004KT 9000 BKN005 BKN036 OVC064 02/01 Q1006
  • 171100Z AUTO VRB02KT 6000 OVC006 02/01 Q1006
  • 171030Z AUTO 31003KT 5000 BR OVC006 02/01 Q1006
  • 171000Z AUTO VRB02KT 6000 OVC005 01/01 Q1006

Previsioni scadute.



MetMap, La meteo Aeronautica in un colpo d'occhio ! - Copyright ORBIFLY Dicembre 2007 - Disclaimer

ORBIFLY MET'MAP TEAM :

Programmazione e sviluppo : Alexandra Zaïnal
Concezione e sviluppo : Baudouin d'Aumeries
Co-Programmazione e sviluppo : Marc-Olivier Méhu
Supporto tecnico e logistico : Manuel Goepfert
Aiuto per la traduzione : Arnaldo La Scala

Contatto : metmap@orbifly.com




FONTI E CREDITI :

   NOAA